Port Angeles, WA

1:12 PM PST on December 10, 2016 (GMT -0800)
Fairchild International | | Change Station

Elev 289 ft 48.12 °N, 123.50 °W | Updated 19 minutes ago

Rain
Rain
40 °F
Feels Like 38 °F
N
4
Wind Variable Wind from WSW

Today
High -- | Low -- °F
--% Chance of Precip.
Yesterday
High -- | Low -- °F
Precip. -- in
Pressure 29.75 in
Visibility 10.0 miles
Clouds Scattered Clouds 3700 ft
Mostly Cloudy 4400 ft
Mostly Cloudy 6500 ft
Windchill 38 °F
Dew Point 39 °F
Humidity 97%
Rainfall 0.04 in
Snow Depth Not available.
7:53 AM 4:20 PM
Waxing Gibbous, 86% visible
METAR KCLM 102053Z AUTO 24003KT 10SM -RA SCT037 BKN044 BKN065 04/04 A2974 RMK AO2 SLP073 P0004 60004 T00440039 58012
Pressure 29.75 in
Visibility 10.0 miles
Clouds Scattered Clouds 3700 ft
Mostly Cloudy 4400 ft
Mostly Cloudy 6500 ft
Windchill 38 °F
Dew Point 39 °F
Humidity 97%
Rainfall 0.04 in
Snow Depth Not available.
7:53 AM 4:20 PM
Waxing Gibbous, 86% visible
METAR KCLM 102053Z AUTO 24003KT 10SM -RA SCT037 BKN044 BKN065 04/04 A2974 RMK AO2 SLP073 P0004 60004 T00440039 58012

10-Day Weather Forecast

Almanac

Astronomy

Dec. 10, 2016 Rise Set
Actual Time
Civil Twilight
Nautical Twilight
Astronomical Twilight
Moon
Length of Visible Light
Length of Day
Tomorrow will be .
, % of the Moon is Illuminated

Today's Extremes

State Highs State Lows

Community

WunderPhotos

Upload Photos

1,956,663 photos uploaded!

WunderBlog® & News

Nearby

Air Quality

  Air Quality AQ Index Pollutant
Not available.

Snow Depth

Station Depth Elevation

Earthquake Activity

City Distance Mag. Time & Date
Minimum magnitude displayed is 2.5.

Coastal Water Temperatures

Place Temperature

Stations

Nearby Weather Stations

Station Location Temp. Windchill Dew Point Humidity Wind Precip. Elev Updated Type
                   

Watches & Warnings

There are currently no watches in effect.